Marienville, Pennsylvania
Current Conditions -  °F | °C
As of 8:53 PM on Wednesday 22 Oct 2014 (Local Time) from KDUJ Reporting Station
Overcast Overcast  
Wind Chill: 40°   Ceiling: 1000
Heat Index: 44°   Visibility: 10mi
Dew Point: 40°   Wind: 8mph
Humidity: 85%   Direction: 360°N
Pressure: 30.13"   Gusts: NA
Location:  41.47°N, 79.12°W
Report Text: KDUJ 230053Z AUTO 36007KT 10SM OVC010 07/04 A3013 RMK AO2 SLP210 T00670044
Loading
Personal Weather Stations






























Interactive Weather Map
Tropical Storm Tracking
New forecast layout! Learn more

10-Day Weather Forecast

Advertisements
Track Severe Weather on mobile